createdAt,value
2023-02-13T00:00:52.862Z,22.83
2023-02-13T00:03:19.984Z,22.00
2023-02-13T00:05:47.074Z,21.37
2023-02-13T00:08:14.136Z,23.30
2023-02-13T00:10:41.282Z,19.83
2023-02-13T00:13:08.331Z,22.03
2023-02-13T00:15:35.439Z,24.70
2023-02-13T00:18:02.866Z,20.30
2023-02-13T00:20:29.986Z,23.00
2023-02-13T00:22:57.016Z,22.67
2023-02-13T00:25:24.013Z,23.60
2023-02-13T00:27:54.203Z,25.80
2023-02-13T00:30:22.606Z,20.30
2023-02-13T00:32:49.698Z,26.97
2023-02-13T00:35:16.752Z,22.60
2023-02-13T00:37:43.761Z,22.10
2023-02-13T00:40:11.016Z,19.97
2023-02-13T00:42:38.030Z,22.63
2023-02-13T00:45:05.182Z,20.57
2023-02-13T00:47:34.268Z,19.83
2023-02-13T00:50:01.403Z,20.37
2023-02-13T00:52:28.507Z,20.80
2023-02-13T00:54:55.645Z,23.17
2023-02-13T00:57:22.760Z,20.33
2023-02-13T00:59:51.053Z,20.93
2023-02-13T01:02:18.207Z,21.43
2023-02-13T01:04:45.231Z,19.40
2023-02-13T01:07:12.251Z,19.53
2023-02-13T01:09:39.286Z,22.07
2023-02-13T01:12:06.374Z,20.70
2023-02-13T01:14:33.660Z,21.20
2023-02-13T01:17:00.666Z,23.07
2023-02-13T01:19:27.669Z,26.43
2023-02-13T01:21:54.701Z,20.93
2023-02-13T01:24:21.709Z,22.50
2023-02-13T01:26:48.718Z,20.97
2023-02-13T01:29:15.817Z,23.47
2023-02-13T01:31:43.032Z,22.43
2023-02-13T01:34:10.221Z,20.80
2023-02-13T01:36:37.282Z,21.80
2023-02-13T01:39:04.364Z,22.47
2023-02-13T01:41:31.463Z,22.30
2023-02-13T01:43:59.852Z,22.80
2023-02-13T01:46:29.866Z,22.50
2023-02-13T01:49:00.308Z,22.20
2023-02-13T01:51:30.496Z,23.43
2023-02-13T01:54:08.549Z,20.47
2023-02-13T01:56:38.151Z,23.80
2023-02-13T01:59:10.671Z,19.93
2023-02-13T02:01:37.945Z,22.63
2023-02-13T02:04:25.345Z,19.47
2023-02-13T02:06:57.935Z,18.70
2023-02-13T02:09:26.922Z,21.23
2023-02-13T02:11:53.918Z,22.60
2023-02-13T02:14:21.051Z,22.90
2023-02-13T02:16:48.056Z,22.73
2023-02-13T02:19:35.307Z,21.20
2023-02-13T02:22:20.874Z,21.97
2023-02-13T02:24:57.145Z,21.77
2023-02-13T02:27:29.971Z,23.30
2023-02-13T02:29:59.959Z,20.90
2023-02-13T02:32:32.611Z,20.30
2023-02-13T02:35:12.613Z,21.67
2023-02-13T02:37:39.672Z,22.60
2023-02-13T02:40:12.664Z,22.53
2023-02-13T02:42:58.563Z,22.03
2023-02-13T02:45:31.173Z,22.50
2023-02-13T02:48:24.488Z,22.47
2023-02-13T02:50:59.596Z,24.97
2023-02-13T02:53:43.354Z,22.17
2023-02-13T02:56:17.100Z,23.43
2023-02-13T02:59:05.946Z,23.37
2023-02-13T03:01:52.392Z,20.90
2023-02-13T03:04:46.296Z,22.00
2023-02-13T03:07:15.112Z,20.30
2023-02-13T03:10:02.617Z,22.77
2023-02-13T03:13:11.299Z,23.93
2023-02-13T03:15:59.797Z,22.83
2023-02-13T03:18:50.439Z,20.53
2023-02-13T03:21:42.367Z,20.77
2023-02-13T03:24:23.124Z,25.00
2023-02-13T03:27:09.136Z,22.10
2023-02-13T03:30:00.614Z,22.33
2023-02-13T03:32:42.583Z,21.97
2023-02-13T03:35:48.546Z,21.80
2023-02-13T03:38:18.998Z,21.43
2023-02-13T03:41:10.153Z,20.33
2023-02-13T03:43:42.658Z,22.70
2023-02-13T03:46:10.565Z,23.60
2023-02-13T03:48:58.059Z,21.40
2023-02-13T03:51:38.177Z,23.33
2023-02-13T03:54:07.702Z,20.47
2023-02-13T03:56:55.369Z,29.20
2023-02-13T03:59:23.671Z,22.90
2023-02-13T04:01:54.071Z,22.07
2023-02-13T04:04:24.210Z,24.97
2023-02-13T04:07:09.297Z,22.20
2023-02-13T04:09:37.966Z,24.90
2023-02-13T04:12:20.167Z,21.63
2023-02-13T04:14:50.740Z,21.93
2023-02-13T04:17:24.575Z,18.17
2023-02-13T04:19:52.100Z,20.47
2023-02-13T04:22:19.214Z,21.13
2023-02-13T04:24:46.552Z,22.90
2023-02-13T04:27:15.037Z,22.90
2023-02-13T04:29:42.157Z,20.80
2023-02-13T04:32:10.600Z,21.97
2023-02-13T04:34:38.051Z,23.00
2023-02-13T04:37:05.051Z,22.15
2023-02-13T04:39:32.068Z,24.40
2023-02-13T04:41:59.108Z,23.53
2023-02-13T04:44:26.124Z,22.83
2023-02-13T04:46:53.298Z,22.73
2023-02-13T04:49:20.287Z,23.03
2023-02-13T04:51:47.319Z,23.03
2023-02-13T04:54:14.405Z,24.67
2023-02-13T04:56:41.459Z,25.90
2023-02-13T04:59:08.465Z,22.40
2023-02-13T05:01:35.537Z,23.43
2023-02-13T05:04:02.893Z,22.77
2023-02-13T05:06:29.961Z,22.70
2023-02-13T05:08:57.014Z,21.97
2023-02-13T05:11:23.602Z,20.83
2023-02-13T05:13:51.053Z,23.63
2023-02-13T05:16:18.641Z,23.42
2023-02-13T05:18:46.355Z,22.50
2023-02-13T05:21:32.939Z,21.55
2023-02-13T05:24:01.209Z,20.27
2023-02-13T05:26:30.335Z,20.80
2023-02-13T05:29:17.043Z,20.60
2023-02-13T05:31:45.234Z,21.40
2023-02-13T05:34:13.236Z,21.77
2023-02-13T05:36:41.187Z,21.60
2023-02-13T05:39:09.409Z,23.77
2023-02-13T05:41:37.413Z,27.67
2023-02-13T05:44:05.686Z,21.13
2023-02-13T05:46:34.456Z,21.23
2023-02-13T05:49:04.798Z,20.75
2023-02-13T05:51:33.075Z,24.02
2023-02-13T05:54:02.109Z,20.08
2023-02-13T05:56:29.154Z,23.40
2023-02-13T05:58:56.639Z,21.00
2023-02-13T06:01:24.159Z,23.13
2023-02-13T06:03:51.085Z,23.67
2023-02-13T06:06:18.182Z,21.35
2023-02-13T06:08:44.817Z,24.98
2023-02-13T06:11:11.727Z,23.30
2023-02-13T06:13:40.682Z,21.92
2023-02-13T06:16:11.610Z,20.20
2023-02-13T06:18:39.219Z,21.10
2023-02-13T06:21:06.839Z,21.90
2023-02-13T06:23:33.540Z,20.38
2023-02-13T06:26:08.188Z,17.77
2023-02-13T06:28:35.299Z,21.35
2023-02-13T06:31:02.363Z,19.92
2023-02-13T06:33:29.596Z,20.63
2023-02-13T06:35:56.201Z,28.92
2023-02-13T06:38:22.926Z,20.92
2023-02-13T06:40:49.703Z,20.40
2023-02-13T06:43:17.698Z,22.75
2023-02-13T06:45:46.778Z,21.90
2023-02-13T06:48:13.929Z,23.05
2023-02-13T06:50:40.675Z,22.98
2023-02-13T06:53:07.251Z,22.63
2023-02-13T06:55:34.567Z,22.77
2023-02-13T06:58:02.437Z,25.77
2023-02-13T07:00:30.496Z,26.85
2023-02-13T07:03:02.936Z,24.40
2023-02-13T07:05:29.693Z,25.73
2023-02-13T07:07:56.660Z,23.30
2023-02-13T07:10:23.809Z,25.95
2023-02-13T07:13:03.538Z,24.52
2023-02-13T07:15:32.720Z,25.25
2023-02-13T07:17:59.705Z,26.33
2023-02-13T07:20:27.129Z,23.00
2023-02-13T07:22:57.350Z,22.45
2023-02-13T07:25:23.981Z,20.88
2023-02-13T07:27:50.592Z,23.52
2023-02-13T07:30:17.343Z,22.70
2023-02-13T07:32:44.010Z,19.83
2023-02-13T07:35:10.645Z,23.55
2023-02-13T07:37:37.243Z,20.95
2023-02-13T07:40:06.475Z,23.85
2023-02-13T07:42:34.853Z,23.85
2023-02-13T07:45:05.612Z,23.63
2023-02-13T07:47:34.173Z,21.27
2023-02-13T07:50:01.599Z,22.52
2023-02-13T07:52:28.173Z,17.80
2023-02-13T07:54:54.816Z,20.13
2023-02-13T07:57:21.405Z,21.10
2023-02-13T07:59:48.003Z,21.85
2023-02-13T08:02:15.815Z,20.55
2023-02-13T08:04:46.664Z,21.65
2023-02-13T08:07:17.707Z,22.05
2023-02-13T08:10:03.877Z,23.73
2023-02-13T08:12:32.455Z,21.60
2023-02-13T08:14:59.162Z,25.35
2023-02-13T08:17:25.890Z,21.65
2023-02-13T08:19:52.492Z,19.13
2023-02-13T08:22:19.263Z,19.63
2023-02-13T08:24:46.332Z,19.70
2023-02-13T08:27:14.562Z,20.90
2023-02-13T08:29:41.803Z,20.47
2023-02-13T08:32:09.142Z,20.40
2023-02-13T08:34:36.500Z,19.03
2023-02-13T08:37:03.979Z,20.87
2023-02-13T08:39:31.385Z,22.23
2023-02-13T08:41:58.939Z,20.37
2023-02-13T08:44:26.548Z,24.30
2023-02-13T08:46:54.179Z,23.20
2023-02-13T08:49:23.326Z,23.80
2023-02-13T08:51:51.556Z,22.93
2023-02-13T08:54:19.465Z,23.27
2023-02-13T08:56:47.317Z,21.40
2023-02-13T08:59:15.143Z,21.10
2023-02-13T09:01:43.130Z,22.40
2023-02-13T09:04:11.429Z,22.70
2023-02-13T09:06:39.580Z,23.50
2023-02-13T09:09:07.545Z,23.40
2023-02-13T09:11:35.740Z,22.40
2023-02-13T09:14:03.876Z,21.80
2023-02-13T09:16:31.010Z,21.13
2023-02-13T09:18:58.095Z,21.83
2023-02-13T09:21:25.259Z,22.10
2023-02-13T09:23:52.996Z,21.80
2023-02-13T09:26:20.870Z,20.30
2023-02-13T09:28:48.173Z,21.10
2023-02-13T09:31:16.973Z,20.50
2023-02-13T09:33:48.493Z,20.33
2023-02-13T09:36:19.252Z,21.80
2023-02-13T09:38:48.176Z,22.30
2023-02-13T09:41:19.719Z,20.50
2023-02-13T09:43:59.201Z,23.27
2023-02-13T09:46:41.925Z,21.07
2023-02-13T09:49:12.090Z,21.40
2023-02-13T09:51:39.403Z,22.93
2023-02-13T09:54:08.279Z,20.43
2023-02-13T09:56:54.835Z,23.80
2023-02-13T09:59:25.080Z,21.03
2023-02-13T10:01:53.526Z,20.10
2023-02-13T10:04:20.534Z,19.43
2023-02-13T10:06:52.930Z,21.30
2023-02-13T10:09:34.987Z,21.17
2023-02-13T10:12:05.790Z,23.20
2023-02-13T10:14:36.345Z,24.40
2023-02-13T10:17:09.944Z,24.30
2023-02-13T10:19:36.954Z,20.50
2023-02-13T10:22:10.006Z,25.37
2023-02-13T10:24:45.991Z,20.80
2023-02-13T10:27:26.705Z,19.67
2023-02-13T10:30:05.731Z,19.67
2023-02-13T10:32:32.801Z,19.07
2023-02-13T10:35:01.661Z,21.90
2023-02-13T10:37:29.568Z,21.77
2023-02-13T10:39:56.726Z,20.30
2023-02-13T10:42:31.671Z,20.43
2023-02-13T10:45:05.264Z,27.10
2023-02-13T10:47:42.146Z,23.00
2023-02-13T10:50:32.735Z,21.80
2023-02-13T10:53:08.900Z,23.97
2023-02-13T10:55:54.880Z,20.93
2023-02-13T10:58:25.074Z,19.47
2023-02-13T11:00:57.826Z,21.70
2023-02-13T11:03:29.671Z,20.20
2023-02-13T11:05:57.849Z,20.33
2023-02-13T11:08:43.048Z,19.53
2023-02-13T11:11:29.730Z,20.13
2023-02-13T11:14:13.996Z,19.50
2023-02-13T11:16:50.170Z,20.40
2023-02-13T11:19:18.802Z,20.67
2023-02-13T11:21:46.460Z,21.80
2023-02-13T11:24:21.538Z,20.07
2023-02-13T11:26:51.650Z,20.13
2023-02-13T11:29:24.406Z,19.80
2023-02-13T11:32:12.647Z,21.77
2023-02-13T11:34:39.927Z,20.80
2023-02-13T11:37:15.298Z,17.83
2023-02-13T11:39:43.372Z,19.20
2023-02-13T11:42:17.758Z,29.33
2023-02-13T11:44:49.858Z,19.80
2023-02-13T11:47:17.018Z,19.70
2023-02-13T11:49:47.930Z,17.40
2023-02-13T11:52:24.618Z,19.60
2023-02-13T11:55:23.694Z,22.10
2023-02-13T11:57:58.323Z,18.80
2023-02-13T12:00:37.238Z,18.60
2023-02-13T12:03:25.470Z,19.07
2023-02-13T12:06:13.484Z,19.90
2023-02-13T12:08:41.542Z,19.47
2023-02-13T12:11:31.875Z,18.70
2023-02-13T12:13:58.887Z,19.30
2023-02-13T12:16:30.622Z,19.50
2023-02-13T12:19:00.769Z,19.13
2023-02-13T12:21:43.202Z,18.70
2023-02-13T12:24:23.386Z,18.90
2023-02-13T12:26:58.651Z,22.50
2023-02-13T12:29:49.104Z,17.10
2023-02-13T12:32:34.669Z,18.80
2023-02-13T12:35:14.884Z,18.23
2023-02-13T12:37:50.682Z,20.33
2023-02-13T12:40:26.886Z,19.43
2023-02-13T12:43:02.967Z,17.60
2023-02-13T12:45:36.137Z,18.43
2023-02-13T12:48:09.109Z,18.10
2023-02-13T12:51:02.699Z,20.20
2023-02-13T12:53:43.983Z,19.60
2023-02-13T12:56:27.046Z,24.90
2023-02-13T12:58:58.058Z,17.50
2023-02-13T13:01:31.519Z,32.03
2023-02-13T13:04:10.687Z,16.70
2023-02-13T13:06:37.668Z,20.83
2023-02-13T13:09:23.254Z,19.10
2023-02-13T13:12:12.408Z,19.97
2023-02-13T13:14:52.746Z,16.70
2023-02-13T13:17:35.863Z,16.80
2023-02-13T13:20:23.193Z,19.90
2023-02-13T13:23:19.809Z,19.67
2023-02-13T13:25:52.522Z,19.60
2023-02-13T13:28:24.237Z,18.97
2023-02-13T13:30:51.920Z,17.20
2023-02-13T13:33:26.209Z,20.00
2023-02-13T13:36:02.889Z,16.67
2023-02-13T13:38:51.906Z,16.10
2023-02-13T13:41:32.252Z,19.13
2023-02-13T13:44:02.143Z,15.70
2023-02-13T13:46:41.334Z,16.87
2023-02-13T13:49:32.793Z,19.10
2023-02-13T13:52:12.266Z,18.30
2023-02-13T13:54:39.304Z,16.73
2023-02-13T13:57:06.664Z,17.10
2023-02-13T13:59:33.691Z,15.87
2023-02-13T14:02:19.286Z,15.97
2023-02-13T14:05:05.145Z,21.90
2023-02-13T14:07:36.534Z,16.87
2023-02-13T14:10:03.774Z,15.70
2023-02-13T14:12:30.821Z,15.27
2023-02-13T14:14:59.217Z,16.17
2023-02-13T14:17:44.948Z,15.47
2023-02-13T14:20:30.432Z,17.60
2023-02-13T14:22:57.777Z,21.93
2023-02-13T14:25:26.818Z,16.43
2023-02-13T14:27:58.719Z,16.70
2023-02-13T14:30:25.780Z,15.83
2023-02-13T14:32:52.985Z,16.53
2023-02-13T14:35:31.754Z,15.53
2023-02-13T14:37:59.647Z,13.43
2023-02-13T14:40:31.531Z,15.10
2023-02-13T14:42:58.592Z,14.60
2023-02-13T14:45:44.670Z,13.47
2023-02-13T14:48:14.039Z,13.37
2023-02-13T14:50:47.383Z,14.13
2023-02-13T14:53:37.714Z,13.53
2023-02-13T14:56:12.485Z,13.87
2023-02-13T14:58:47.077Z,13.80
2023-02-13T15:01:21.969Z,13.20
2023-02-13T15:03:53.296Z,13.80
2023-02-13T15:06:24.859Z,40.93
2023-02-13T15:08:52.609Z,13.90
2023-02-13T15:11:54.951Z,12.80
2023-02-13T15:14:33.253Z,17.50
2023-02-13T15:17:03.844Z,12.50
2023-02-13T15:19:31.016Z,14.03
2023-02-13T15:21:59.787Z,20.63
2023-02-13T15:24:27.309Z,13.00
2023-02-13T15:27:02.465Z,14.10
2023-02-13T15:29:44.019Z,14.70
2023-02-13T15:32:20.153Z,14.20
2023-02-13T15:34:48.317Z,12.03
2023-02-13T15:37:22.387Z,14.73
2023-02-13T15:39:49.423Z,12.87
2023-02-13T15:42:16.562Z,16.10
2023-02-13T15:44:45.411Z,14.90
2023-02-13T15:47:18.023Z,13.60
2023-02-13T15:49:47.035Z,13.83
2023-02-13T15:52:20.100Z,13.13
2023-02-13T15:54:54.284Z,14.27
2023-02-13T15:57:23.288Z,13.47
2023-02-13T15:59:50.964Z,14.00
2023-02-13T16:02:22.093Z,14.40
2023-02-13T16:04:51.923Z,12.97
2023-02-13T16:07:20.516Z,13.90
2023-02-13T16:09:47.634Z,14.03
2023-02-13T16:12:17.726Z,14.73
2023-02-13T16:14:53.731Z,14.60
2023-02-13T16:17:29.778Z,15.13
2023-02-13T16:20:06.612Z,12.90
2023-02-13T16:22:47.820Z,13.30
2023-02-13T16:25:18.881Z,13.80
2023-02-13T16:27:53.603Z,15.70
2023-02-13T16:30:24.367Z,16.77
2023-02-13T16:32:51.586Z,13.47
2023-02-13T16:35:29.265Z,17.00
2023-02-13T16:38:00.367Z,17.00
2023-02-13T16:40:34.634Z,15.77
2023-02-13T16:43:20.237Z,16.50
2023-02-13T16:45:47.420Z,17.87
2023-02-13T16:48:15.973Z,17.30
2023-02-13T16:50:43.479Z,13.30
2023-02-13T16:53:10.550Z,14.80
2023-02-13T16:55:37.595Z,14.17
2023-02-13T16:58:06.133Z,15.00
2023-02-13T17:00:33.285Z,15.53
2023-02-13T17:03:00.303Z,13.07
2023-02-13T17:05:29.061Z,21.80
2023-02-13T17:08:01.341Z,18.40
2023-02-13T17:10:35.760Z,19.70
2023-02-13T17:13:19.190Z,20.63
2023-02-13T17:15:47.352Z,19.23
2023-02-13T17:18:14.501Z,15.60
2023-02-13T17:20:42.659Z,14.00
2023-02-13T17:23:14.966Z,15.43
2023-02-13T17:25:43.434Z,14.70
2023-02-13T17:28:18.668Z,13.83
2023-02-13T17:30:46.665Z,12.33
2023-02-13T17:33:24.281Z,12.48
2023-02-13T17:35:51.625Z,14.50
2023-02-13T17:38:18.667Z,13.60
2023-02-13T17:40:46.161Z,11.95
2023-02-13T17:43:14.115Z,12.43
2023-02-13T17:45:41.510Z,13.45
2023-02-13T17:48:08.576Z,16.63
2023-02-13T17:50:36.417Z,13.05
2023-02-13T17:53:07.895Z,11.95
2023-02-13T17:55:35.213Z,15.55
2023-02-13T17:58:02.566Z,12.38
2023-02-13T18:00:31.382Z,16.70
2023-02-13T18:02:59.296Z,12.82
2023-02-13T18:05:26.568Z,12.63
2023-02-13T18:07:53.589Z,12.05
2023-02-13T18:10:22.038Z,14.52
2023-02-13T18:12:50.071Z,12.65
2023-02-13T18:15:17.338Z,12.90
2023-02-13T18:17:44.528Z,12.38
2023-02-13T18:20:13.050Z,12.18
2023-02-13T18:22:41.273Z,15.32
2023-02-13T18:25:09.001Z,17.00
2023-02-13T18:27:36.345Z,13.38
2023-02-13T18:30:03.599Z,12.65
2023-02-13T18:32:30.676Z,15.13
2023-02-13T18:34:57.703Z,16.10
2023-02-13T18:37:24.728Z,13.50
2023-02-13T18:39:51.745Z,14.30
2023-02-13T18:42:18.917Z,13.85
2023-02-13T18:44:45.984Z,14.02
2023-02-13T18:47:13.022Z,18.02
2023-02-13T18:49:40.019Z,15.60
2023-02-13T18:52:07.194Z,17.75
2023-02-13T18:54:34.301Z,16.48
2023-02-13T18:57:01.315Z,13.20
2023-02-13T18:59:28.419Z,19.17
2023-02-13T19:01:55.557Z,14.88
2023-02-13T19:04:22.627Z,20.38
2023-02-13T19:06:50.100Z,20.65
2023-02-13T19:09:17.173Z,14.75
2023-02-13T19:11:44.446Z,12.45
2023-02-13T19:14:13.086Z,11.93
2023-02-13T19:16:40.175Z,17.85
2023-02-13T19:19:07.810Z,13.32
2023-02-13T19:21:37.787Z,13.00
2023-02-13T19:24:06.064Z,13.25
2023-02-13T19:26:33.166Z,14.80
2023-02-13T19:29:00.177Z,12.77
2023-02-13T19:31:28.564Z,12.57
2023-02-13T19:33:55.890Z,11.60
2023-02-13T19:36:26.845Z,13.70
2023-02-13T19:38:57.364Z,13.48
2023-02-13T19:41:24.543Z,17.70
2023-02-13T19:43:53.474Z,16.10
2023-02-13T19:46:22.604Z,17.40
2023-02-13T19:48:49.792Z,20.83
2023-02-13T19:51:18.283Z,20.58
2023-02-13T19:53:45.633Z,18.63
2023-02-13T19:56:14.566Z,20.25
2023-02-13T19:58:42.394Z,22.17
2023-02-13T20:01:13.872Z,19.00
2023-02-13T20:03:41.530Z,18.85
2023-02-13T20:06:19.206Z,16.50
2023-02-13T20:08:46.670Z,17.17
2023-02-13T20:11:14.755Z,14.90
2023-02-13T20:13:42.229Z,17.42
2023-02-13T20:16:11.173Z,14.70
2023-02-13T20:18:38.760Z,15.02
2023-02-13T20:21:06.804Z,16.92
2023-02-13T20:23:35.060Z,17.05
2023-02-13T20:26:06.279Z,18.23
2023-02-13T20:28:33.288Z,14.00
2023-02-13T20:31:01.125Z,17.33
2023-02-13T20:33:28.399Z,17.48
2023-02-13T20:35:55.884Z,19.02
2023-02-13T20:38:22.922Z,18.85
2023-02-13T20:40:49.963Z,24.67
2023-02-13T20:43:16.960Z,16.70
2023-02-13T20:45:44.114Z,17.80
2023-02-13T20:48:11.300Z,19.50
2023-02-13T20:50:38.356Z,15.75
2023-02-13T20:53:05.347Z,14.90
2023-02-13T20:55:32.491Z,20.13
2023-02-13T20:57:59.539Z,16.27
2023-02-13T21:00:26.711Z,15.82
2023-02-13T21:02:53.982Z,15.52
2023-02-13T21:05:21.239Z,16.65
2023-02-13T21:07:48.271Z,19.73
2023-02-13T21:10:15.306Z,14.95
2023-02-13T21:12:42.410Z,15.90
2023-02-13T21:15:09.648Z,15.50
2023-02-13T21:17:39.841Z,18.30
2023-02-13T21:20:07.158Z,15.82
2023-02-13T21:22:34.234Z,17.60
2023-02-13T21:25:01.299Z,15.70
2023-02-13T21:27:28.377Z,17.50
2023-02-13T21:29:55.772Z,15.60
2023-02-13T21:32:22.963Z,15.98
2023-02-13T21:34:50.180Z,14.40
2023-02-13T21:37:17.215Z,13.32
2023-02-13T21:39:44.276Z,18.08
2023-02-13T21:42:11.292Z,13.27
2023-02-13T21:44:38.286Z,15.82
2023-02-13T21:47:07.097Z,18.33
2023-02-13T21:49:35.745Z,19.10
2023-02-13T21:52:02.759Z,16.67
2023-02-13T21:54:29.856Z,13.40
2023-02-13T21:56:56.892Z,17.92
2023-02-13T21:59:23.900Z,14.48
2023-02-13T22:01:51.388Z,17.92
2023-02-13T22:04:19.012Z,18.00
2023-02-13T22:06:48.708Z,16.30
2023-02-13T22:09:16.474Z,20.80
2023-02-13T22:11:43.541Z,16.30
2023-02-13T22:14:12.451Z,19.40
2023-02-13T22:16:40.284Z,21.13
2023-02-13T22:19:07.717Z,22.25
2023-02-13T22:21:35.464Z,17.63
2023-02-13T22:24:02.536Z,17.20
2023-02-13T22:26:34.110Z,18.10
2023-02-13T22:29:03.631Z,16.02
2023-02-13T22:31:30.934Z,15.90
2023-02-13T22:34:03.933Z,19.27
2023-02-13T22:36:38.732Z,17.50
2023-02-13T22:39:05.835Z,15.85
2023-02-13T22:41:32.916Z,20.17
2023-02-13T22:44:00.004Z,15.73
2023-02-13T22:46:31.252Z,15.77
2023-02-13T22:48:59.026Z,15.60
2023-02-13T22:51:28.427Z,15.48
2023-02-13T22:53:56.712Z,17.13
2023-02-13T22:56:24.414Z,15.63
2023-02-13T22:58:51.498Z,18.38
2023-02-13T23:01:24.348Z,17.00
2023-02-13T23:03:51.539Z,16.13
2023-02-13T23:06:19.146Z,15.38
2023-02-13T23:08:48.935Z,17.58
2023-02-13T23:11:35.708Z,14.95
2023-02-13T23:14:02.814Z,16.80
2023-02-13T23:16:53.084Z,16.63
2023-02-13T23:19:20.573Z,18.77
2023-02-13T23:21:47.656Z,15.73
2023-02-13T23:24:14.696Z,16.77
2023-02-13T23:26:41.719Z,16.70
2023-02-13T23:29:08.751Z,15.55
2023-02-13T23:31:35.875Z,14.73
2023-02-13T23:34:03.106Z,20.55
2023-02-13T23:36:30.176Z,17.25
2023-02-13T23:38:57.271Z,19.85
2023-02-13T23:41:24.342Z,17.88
2023-02-13T23:43:51.340Z,15.60
2023-02-13T23:46:18.459Z,15.23
2023-02-13T23:48:46.032Z,14.70
2023-02-13T23:51:13.106Z,15.38
2023-02-13T23:53:40.220Z,19.08
2023-02-13T23:56:07.521Z,18.42
2023-02-13T23:58:34.570Z,16.20
